Home > Products > Valid Products > TAF

000
FTPA31 PHFO 241500 AAA
TAFHNL
TAF AMD
PHNL 241505Z 2415/2518 06013G20KT P6SM VCSH FEW025 SCT035
     FM242000 06019G29KT P6SM FEW030 SCT050
     FM250600 06013G20KT P6SM FEW025 SCT045=



000
FTPA31 PHFO 241500 AAA
TAFHNL
TAF AMD
PHNL 241505Z 2415/2518 06013G20KT P6SM VCSH FEW025 SCT035
     FM242000 06019G29KT P6SM FEW030 SCT050
     FM250600 06013G20KT P6SM FEW025 SCT045=



000
FTPA31 PHFO 241100
TAFHNL
TAF
PHNL 241129Z 2412/2518 06013G20KT P6SM VCSH FEW025 SCT050
     FM241400 06011KT P6SM VCSH FEW025 SCT040
     FM242000 06019G29KT P6SM FEW030 SCT050
     FM250600 06013G20KT P6SM FEW025 SCT045=



000
FTPA31 PHFO 241100
TAFHNL
TAF
PHNL 241129Z 2412/2518 06013G20KT P6SM VCSH FEW025 SCT050
     FM241400 06011KT P6SM VCSH FEW025 SCT040
     FM242000 06019G29KT P6SM FEW030 SCT050
     FM250600 06013G20KT P6SM FEW025 SCT045=



000
FTPA31 PHFO 240900 AAA
TAFHNL
TAF AMD
PHNL 240905Z 2409/2512 06012G20KT P6SM VCSH FEW025 SCT050
     FM241000 06011KT P6SM VCSH FEW025 SCT040
     FM242000 06017G27KT P6SM FEW030 SCT050
     FM250600 06012G18KT P6SM FEW025 SCT045
     FM251000 06010KT P6SM FEW025 SCT040=



000
FTPA31 PHFO 240900 AAA
TAFHNL
TAF AMD
PHNL 240905Z 2409/2512 06012G20KT P6SM VCSH FEW025 SCT050
     FM241000 06011KT P6SM VCSH FEW025 SCT040
     FM242000 06017G27KT P6SM FEW030 SCT050
     FM250600 06012G18KT P6SM FEW025 SCT045
     FM251000 06010KT P6SM FEW025 SCT040=



000
FTPA31 PHFO 240500
TAFHNL
TAF
PHNL 240540Z 2406/2512 06012G20KT P6SM VCSH FEW025 SCT050
     FM241000 06011KT P6SM VCSH FEW025 SCT040
     FM242000 06017G27KT P6SM FEW030 SCT050
     FM250600 06012G18KT P6SM FEW025 SCT045
     FM251000 06010KT P6SM FEW025 SCT040=



000
FTPA31 PHFO 240500
TAFHNL
TAF
PHNL 240540Z 2406/2512 06012G20KT P6SM VCSH FEW025 SCT050
     FM241000 06011KT P6SM VCSH FEW025 SCT040
     FM242000 06017G27KT P6SM FEW030 SCT050
     FM250600 06012G18KT P6SM FEW025 SCT045
     FM251000 06010KT P6SM FEW025 SCT040=



000
FTPA31 PHFO 240300 AAA
TAFHNL
TAF AMD
PHNL 240305Z 2403/2506 07015G25KT P6SM FEW025 SCT040
     FM240600 07012G18KT P6SM FEW025 SCT040
     FM241000 07012KT P6SM FEW025 SCT040
     FM241900 07012G28KT P6SM FEW025 SCT040=



000
FTPA31 PHFO 240300 AAA
TAFHNL
TAF AMD
PHNL 240305Z 2403/2506 07015G25KT P6SM FEW025 SCT040
     FM240600 07012G18KT P6SM FEW025 SCT040
     FM241000 07012KT P6SM FEW025 SCT040
     FM241900 07012G28KT P6SM FEW025 SCT040=



000
FTPA31 PHFO 232300
TAFHNL
TAF
PHNL 232340Z 2400/2506 07015G25KT P6SM FEW025 SCT040
     FM240600 07012G18KT P6SM FEW025 SCT040
     FM241000 07012KT P6SM FEW025 SCT040
     FM241900 07012G28KT P6SM FEW025 SCT040=



000
FTPA31 PHFO 232300
TAFHNL
TAF
PHNL 232340Z 2400/2506 07015G25KT P6SM FEW025 SCT040
     FM240600 07012G18KT P6SM FEW025 SCT040
     FM241000 07012KT P6SM FEW025 SCT040
     FM241900 07012G28KT P6SM FEW025 SCT040=



000
FTPA31 PHFO 232100 AAA
TAFHNL
TAF AMD
PHNL 232105Z 2321/2424 07015G25KT P6SM FEW025 SCT040
     FM240600 07012G18KT P6SM FEW025 SCT040
     FM241000 07012KT P6SM FEW025 SCT040
     FM241900 07012G28KT P6SM FEW025 SCT040=



000
FTPA31 PHFO 232100 AAA
TAFHNL
TAF AMD
PHNL 232105Z 2321/2424 07015G25KT P6SM FEW025 SCT040
     FM240600 07012G18KT P6SM FEW025 SCT040
     FM241000 07012KT P6SM FEW025 SCT040
     FM241900 07012G28KT P6SM FEW025 SCT040=



000
FTPA31 PHFO 231700
TAFHNL
TAF
PHNL 231731Z 2318/2424 07010G20KT P6SM FEW025 SCT040 BKN200
     FM231900 07015G25KT P6SM FEW025 SCT040
     FM240600 07012G18KT P6SM FEW025 SCT040
     FM241000 07012KT P6SM FEW025 SCT040
     FM241900 07012G28KT P6SM FEW025 SCT040=



000
FTPA31 PHFO 231700
TAFHNL
TAF
PHNL 231731Z 2318/2424 07010G20KT P6SM FEW025 SCT040 BKN200
     FM231900 07015G25KT P6SM FEW025 SCT040
     FM240600 07012G18KT P6SM FEW025 SCT040
     FM241000 07012KT P6SM FEW025 SCT040
     FM241900 07012G28KT P6SM FEW025 SCT040=



000
FTPA31 PHFO 231500 AAA
TAFHNL
TAF AMD
PHNL 231524Z 2315/2418 07010G20KT P6SM FEW025 SCT040 BKN200
     FM231900 07015G25KT P6SM FEW025 SCT040
     FM240600 07012G18KT P6SM FEW025 SCT040
     FM241000 07012KT P6SM FEW025 SCT040=



000
FTPA31 PHFO 231500 AAA
TAFHNL
TAF AMD
PHNL 231524Z 2315/2418 07010G20KT P6SM FEW025 SCT040 BKN200
     FM231900 07015G25KT P6SM FEW025 SCT040
     FM240600 07012G18KT P6SM FEW025 SCT040
     FM241000 07012KT P6SM FEW025 SCT040=



000
FTPA31 PHFO 231100
TAFHNL
TAF
PHNL 231136Z 2312/2418 07012G20KT P6SM FEW025 SCT040 BKN200
      TEMPO 2312/2315 07012KT
     FM231900 07015G25KT P6SM FEW025 SCT040
     FM240600 07012G18KT P6SM FEW025 SCT040
     FM241000 07012KT P6SM FEW025 SCT040=



000
FTPA31 PHFO 231100
TAFHNL
TAF
PHNL 231136Z 2312/2418 07012G20KT P6SM FEW025 SCT040 BKN200
      TEMPO 2312/2315 07012KT
     FM231900 07015G25KT P6SM FEW025 SCT040
     FM240600 07012G18KT P6SM FEW025 SCT040
     FM241000 07012KT P6SM FEW025 SCT040=



000
FTPA31 PHFO 230900 AAA
TAFHNL
TAF AMD
PHNL 230900Z 2309/2412 07012G20KT P6SM FEW025 SCT040 BKN200
      TEMPO 2309/2312 07012KT
     FM231200 07012KT P6SM FEW025 SCT040 SCT200
     FM231900 07015G25KT P6SM FEW025 SCT040
     FM240600 07012G18KT P6SM FEW025 SCT040
     FM241000 07012KT P6SM FEW025 SCT040=



000
FTPA31 PHFO 230500
TAFHNL
TAF
PHNL 230535Z 2306/2412 07012G25KT P6SM FEW025 SCT040 BKN200
     FM231200 07012KT P6SM FEW025 SCT040
     FM231900 07015G25KT P6SM FEW025 SCT040
     FM240600 07012G18KT P6SM FEW025 SCT040
     FM241000 07012KT P6SM FEW025 SCT040=



000
FTPA31 PHFO 230200 RRA
TAFHNL
TAF AMD
PHNL 230221Z 2302/2406 05018G26KT P6SM FEW030 SCT045
     FM230900 05012G20KT P6SM SCT030 BKN045
     FM232100 05018G26KT P6SM FEW030 SCT045=



000
FTPA31 PHFO 230200 RRA
TAFHNL
TAF AMD
PHNL 230221Z 2302/2406 05018G26KT P6SM FEW030 SCT045
     FM230900 05012G20KT P6SM SCT030 BKN045
     FM232100 05018G26KT P6SM FEW030 SCT045=



000
FTPA31 PHFO 222300
TAFHNL
TAF
PHNL 222321Z 2300/2406 05018G26KT P6SM FEW030 SCT045
     FM231200 05012G20KT P6SM SCT030 BKN045
     FM232000 05018G26KT P6SM FEW030 SCT045=



000
FTPA31 PHFO 222300
TAFHNL
TAF
PHNL 222321Z 2300/2406 05018G26KT P6SM FEW030 SCT045
     FM231200 05012G20KT P6SM SCT030 BKN045
     FM232000 05018G26KT P6SM FEW030 SCT045=



000
FTPA31 PHFO 222000 RRB
TAFHNL
TAF AMD
PHNL 222031Z 2220/2324 06015G23KT P6SM FEW030 SCT045
     FM230900 06012G20KT P6SM FEW030 BKN045
     FM232100 06015G23KT P6SM FEW030 SCT045=



000
FTPA31 PHFO 222000 RRB
TAFHNL
TAF AMD
PHNL 222031Z 2220/2324 06015G23KT P6SM FEW030 SCT045
     FM230900 06012G20KT P6SM FEW030 BKN045
     FM232100 06015G23KT P6SM FEW030 SCT045=



000
FTPA31 PHFO 221700 RRA
TAFHNL
TAF
PHNL 221742Z 2218/2324 06018G26KT P6SM FEW035 SCT050
      TEMPO 2218/2221 06012G18KT -SHRA SCT030 OVC045
     FM230700 06012G18KT P6SM FEW035 BKN050=



000
FTPA31 PHFO 221700 RRA
TAFHNL
TAF
PHNL 221742Z 2218/2324 06018G26KT P6SM FEW035 SCT050
      TEMPO 2218/2221 06012G18KT -SHRA SCT030 OVC045
     FM230700 06012G18KT P6SM FEW035 BKN050=



000
FTPA31 PHFO 221500 AAA
TAFHNL
TAF AMD
PHNL 221503Z 2215/2318 05012G20KT P6SM VCSH FEW025 SCT035 BKN050
     FM222000 06016G26KT P6SM FEW030 SCT050
     FM230400 06012G18KT P6SM FEW030 SCT050=



000
FTPA31 PHFO 221500 AAA
TAFHNL
TAF AMD
PHNL 221503Z 2215/2318 05012G20KT P6SM VCSH FEW025 SCT035 BKN050
     FM222000 06016G26KT P6SM FEW030 SCT050
     FM230400 06012G18KT P6SM FEW030 SCT050=



000
FTPA31 PHFO 221100
TAFHNL
TAF
PHNL 221127Z 2212/2318 05012G20KT P6SM VCSH FEW025 SCT035 BKN050
     FM222000 06016G26KT P6SM FEW030 SCT050
     FM230400 06012G18KT P6SM FEW030 SCT050=



000
FTPA31 PHFO 221100
TAFHNL
TAF
PHNL 221127Z 2212/2318 05012G20KT P6SM VCSH FEW025 SCT035 BKN050
     FM222000 06016G26KT P6SM FEW030 SCT050
     FM230400 06012G18KT P6SM FEW030 SCT050=



000
FTPA31 PHFO 220900 AAA
TAFHNL
TAF AMD
PHNL 220905Z 2209/2312 05014G23KT P6SM VCSH FEW025 SCT035 BKN050
     FM222000 06016G26KT P6SM FEW030 SCT050
     FM230400 06012G18KT P6SM FEW030 SCT050=



000
FTPA31 PHFO 220900 AAA
TAFHNL
TAF AMD
PHNL 220905Z 2209/2312 05014G23KT P6SM VCSH FEW025 SCT035 BKN050
     FM222000 06016G26KT P6SM FEW030 SCT050
     FM230400 06012G18KT P6SM FEW030 SCT050=



000
FTPA31 PHFO 220500
TAFHNL
TAF
PHNL 220531Z 2206/2312 05014G23KT P6SM VCSH FEW025 SCT035 BKN050
     FM222000 06016G26KT P6SM FEW030 SCT050
     FM230400 06012G18KT P6SM FEW030 SCT050=



000
FTPA31 PHFO 220500
TAFHNL
TAF
PHNL 220531Z 2206/2312 05014G23KT P6SM VCSH FEW025 SCT035 BKN050
     FM222000 06016G26KT P6SM FEW030 SCT050
     FM230400 06012G18KT P6SM FEW030 SCT050=



000
FTPA31 PHFO 220300 AAA
TAFHNL
TAF AMD
PHNL 220305Z 2203/2306 05014G23KT P6SM FEW030 BKN035 BKN250
     FM220700 05012G20KT P6SM SCT030 BKN045
     FM222000 06016G26KT P6SM FEW030 SCT045=



000
FTPA31 PHFO 220300 AAA
TAFHNL
TAF AMD
PHNL 220305Z 2203/2306 05014G23KT P6SM FEW030 BKN035 BKN250
     FM220700 05012G20KT P6SM SCT030 BKN045
     FM222000 06016G26KT P6SM FEW030 SCT045=



000
FTPA31 PHFO 212300
TAFHNL
TAF
PHNL 212320Z 2200/2306 05016G26KT P6SM FEW030 BKN045 BKN250
     FM220700 05012G20KT P6SM SCT030 BKN045
     FM222000 06016G26KT P6SM FEW030 SCT045=



000
FTPA31 PHFO 212300
TAFHNL
TAF
PHNL 212320Z 2200/2306 05016G26KT P6SM FEW030 BKN045 BKN250
     FM220700 05012G20KT P6SM SCT030 BKN045
     FM222000 06016G26KT P6SM FEW030 SCT045=



000
FTPA31 PHFO 212100 AAA
TAFHNL
TAF AMD
PHNL 212107Z 2121/2224 05016G26KT P6SM VCSH FEW030 BKN045 BKN250
     FM220700 05012G20KT P6SM SCT030 BKN045
     FM222000 06016G26KT P6SM FEW030 SCT045=



000
FTPA31 PHFO 212100 AAA
TAFHNL
TAF AMD
PHNL 212107Z 2121/2224 05016G26KT P6SM VCSH FEW030 BKN045 BKN250
     FM220700 05012G20KT P6SM SCT030 BKN045
     FM222000 06016G26KT P6SM FEW030 SCT045=



000
FTPA31 PHFO 211700
TAFHNL
TAF
PHNL 211720Z 2118/2224 05016G26KT P6SM VCSH FEW030 BKN045 BKN250
     FM220700 05012G20KT P6SM SCT030 BKN045
     FM222000 06016G26KT P6SM FEW030 SCT045=



000
FTPA31 PHFO 211700
TAFHNL
TAF
PHNL 211720Z 2118/2224 05016G26KT P6SM VCSH FEW030 BKN045 BKN250
     FM220700 05012G20KT P6SM SCT030 BKN045
     FM222000 06016G26KT P6SM FEW030 SCT045=



    US Dept of Commerce
    National Oceanic and Atmospheric Administration
    National Weather Service
    1325 East West Highway
    Silver Spring, MD 20910
    Page Author: NWS Internet Services Team
Disclaimer
Information Quality
Credits
Glossary
Privacy Policy
Freedom of Information Act (FOIA)
About Us
Career Opportunities